sensor_id;sensor_type;location;lat;lon;timestamp;P1;durP1;ratioP1;P2;durP2;ratioP2
32130;SDS011;18639;50.716;7.086;2022-07-09T00:00:36;5.10;;;1.00;;
32130;SDS011;18639;50.716;7.086;2022-07-09T00:03:01;1.70;;;1.02;;
32130;SDS011;18639;50.716;7.086;2022-07-09T00:05:27;1.92;;;1.15;;
32130;SDS011;18639;50.716;7.086;2022-07-09T00:07:52;1.15;;;0.90;;
32130;SDS011;18639;50.716;7.086;2022-07-09T00:10:18;3.58;;;0.77;;
32130;SDS011;18639;50.716;7.086;2022-07-09T00:12:43;2.90;;;1.00;;
32130;SDS011;18639;50.716;7.086;2022-07-09T00:15:09;1.08;;;0.88;;
32130;SDS011;18639;50.716;7.086;2022-07-09T00:17:34;1.52;;;0.77;;
32130;SDS011;18639;50.716;7.086;2022-07-09T00:20:00;1.00;;;0.88;;
32130;SDS011;18639;50.716;7.086;2022-07-09T00:22:29;2.47;;;1.25;;
32130;SDS011;18639;50.716;7.086;2022-07-09T00:24:56;2.10;;;1.08;;
32130;SDS011;18639;50.716;7.086;2022-07-09T00:27:22;1.67;;;1.00;;
32130;SDS011;18639;50.716;7.086;2022-07-09T00:29:47;1.42;;;0.93;;
32130;SDS011;18639;50.716;7.086;2022-07-09T00:32:13;0.68;;;0.68;;
32130;SDS011;18639;50.716;7.086;2022-07-09T00:34:38;1.33;;;0.88;;
32130;SDS011;18639;50.716;7.086;2022-07-09T00:37:04;0.85;;;0.70;;
32130;SDS011;18639;50.716;7.086;2022-07-09T00:39:30;2.05;;;1.00;;
32130;SDS011;18639;50.716;7.086;2022-07-09T00:42:05;1.63;;;1.10;;
32130;SDS011;18639;50.716;7.086;2022-07-09T00:44:31;1.27;;;0.82;;
32130;SDS011;18639;50.716;7.086;2022-07-09T00:46:57;1.60;;;0.90;;
32130;SDS011;18639;50.716;7.086;2022-07-09T00:49:22;1.55;;;0.90;;
32130;SDS011;18639;50.716;7.086;2022-07-09T00:51:49;1.17;;;0.80;;
32130;SDS011;18639;50.716;7.086;2022-07-09T00:54:14;5.22;;;0.90;;
32130;SDS011;18639;50.716;7.086;2022-07-09T00:56:40;7.18;;;1.00;;
32130;SDS011;18639;50.716;7.086;2022-07-09T00:59:05;1.98;;;1.10;;
32130;SDS011;18639;50.716;7.086;2022-07-09T01:01:35;0.95;;;0.68;;
32130;SDS011;18639;50.716;7.086;2022-07-09T01:04:01;1.73;;;0.90;;
32130;SDS011;18639;50.716;7.086;2022-07-09T01:06:26;1.98;;;0.80;;
32130;SDS011;18639;50.716;7.086;2022-07-09T01:08:51;2.20;;;1.00;;
32130;SDS011;18639;50.716;7.086;2022-07-09T01:11:17;1.25;;;0.88;;
32130;SDS011;18639;50.716;7.086;2022-07-09T01:13:42;1.83;;;0.95;;
32130;SDS011;18639;50.716;7.086;2022-07-09T01:16:11;1.67;;;1.00;;
32130;SDS011;18639;50.716;7.086;2022-07-09T01:18:42;2.08;;;0.98;;
32130;SDS011;18639;50.716;7.086;2022-07-09T01:21:09;2.28;;;0.95;;
32130;SDS011;18639;50.716;7.086;2022-07-09T01:23:34;1.95;;;0.98;;
32130;SDS011;18639;50.716;7.086;2022-07-09T01:25:59;0.95;;;0.85;;
32130;SDS011;18639;50.716;7.086;2022-07-09T01:28:25;5.95;;;1.17;;
32130;SDS011;18639;50.716;7.086;2022-07-09T01:30:50;1.48;;;1.00;;
32130;SDS011;18639;50.716;7.086;2022-07-09T01:33:16;2.85;;;1.10;;
32130;SDS011;18639;50.716;7.086;2022-07-09T01:35:41;1.90;;;0.93;;
32130;SDS011;18639;50.716;7.086;2022-07-09T01:38:06;1.17;;;0.85;;
32130;SDS011;18639;50.716;7.086;2022-07-09T01:40:31;1.17;;;0.70;;
32130;SDS011;18639;50.716;7.086;2022-07-09T01:42:57;1.98;;;0.90;;
32130;SDS011;18639;50.716;7.086;2022-07-09T01:45:22;2.03;;;1.00;;
32130;SDS011;18639;50.716;7.086;2022-07-09T01:47:48;2.58;;;0.98;;
32130;SDS011;18639;50.716;7.086;2022-07-09T01:50:13;1.83;;;0.90;;
32130;SDS011;18639;50.716;7.086;2022-07-09T01:52:38;1.30;;;0.80;;
32130;SDS011;18639;50.716;7.086;2022-07-09T01:55:04;2.20;;;1.00;;
32130;SDS011;18639;50.716;7.086;2022-07-09T01:57:30;1.55;;;0.93;;
32130;SDS011;18639;50.716;7.086;2022-07-09T01:59:55;1.65;;;1.00;;
32130;SDS011;18639;50.716;7.086;2022-07-09T02:02:20;2.30;;;1.10;;
32130;SDS011;18639;50.716;7.086;2022-07-09T02:04:46;2.67;;;1.35;;
32130;SDS011;18639;50.716;7.086;2022-07-09T02:07:12;1.45;;;1.00;;
32130;SDS011;18639;50.716;7.086;2022-07-09T02:09:38;3.20;;;1.20;;
32130;SDS011;18639;50.716;7.086;2022-07-09T02:12:03;2.58;;;1.00;;
32130;SDS011;18639;50.716;7.086;2022-07-09T02:14:29;2.78;;;1.23;;
32130;SDS011;18639;50.716;7.086;2022-07-09T02:16:54;1.80;;;1.00;;
32130;SDS011;18639;50.716;7.086;2022-07-09T02:19:20;1.10;;;0.98;;
32130;SDS011;18639;50.716;7.086;2022-07-09T02:21:45;2.58;;;0.75;;
32130;SDS011;18639;50.716;7.086;2022-07-09T02:24:10;1.77;;;0.80;;
32130;SDS011;18639;50.716;7.086;2022-07-09T02:26:36;2.25;;;1.25;;
32130;SDS011;18639;50.716;7.086;2022-07-09T02:29:01;2.00;;;1.00;;
32130;SDS011;18639;50.716;7.086;2022-07-09T02:31:27;1.88;;;1.00;;
32130;SDS011;18639;50.716;7.086;2022-07-09T02:33:52;2.22;;;0.90;;
32130;SDS011;18639;50.716;7.086;2022-07-09T02:36:18;1.88;;;1.17;;
32130;SDS011;18639;50.716;7.086;2022-07-09T02:38:44;1.27;;;0.90;;
32130;SDS011;18639;50.716;7.086;2022-07-09T02:41:09;1.02;;;0.73;;
32130;SDS011;18639;50.716;7.086;2022-07-09T02:43:35;2.42;;;0.90;;
32130;SDS011;18639;50.716;7.086;2022-07-09T02:46:00;1.35;;;0.80;;
32130;SDS011;18639;50.716;7.086;2022-07-09T02:48:26;2.38;;;1.10;;
32130;SDS011;18639;50.716;7.086;2022-07-09T02:50:53;2.33;;;1.38;;
32130;SDS011;18639;50.716;7.086;2022-07-09T02:53:18;1.63;;;1.05;;
32130;SDS011;18639;50.716;7.086;2022-07-09T02:55:44;2.13;;;1.10;;
32130;SDS011;18639;50.716;7.086;2022-07-09T02:58:09;2.45;;;1.08;;
32130;SDS011;18639;50.716;7.086;2022-07-09T03:00:35;4.70;;;1.17;;
32130;SDS011;18639;50.716;7.086;2022-07-09T03:03:01;1.23;;;0.80;;
32130;SDS011;18639;50.716;7.086;2022-07-09T03:05:27;3.55;;;1.42;;
32130;SDS011;18639;50.716;7.086;2022-07-09T03:07:52;2.88;;;1.10;;
32130;SDS011;18639;50.716;7.086;2022-07-09T03:10:17;1.92;;;0.80;;
32130;SDS011;18639;50.716;7.086;2022-07-09T03:12:42;3.10;;;1.00;;
32130;SDS011;18639;50.716;7.086;2022-07-09T03:15:08;1.67;;;0.85;;
32130;SDS011;18639;50.716;7.086;2022-07-09T03:17:34;1.35;;;0.70;;
32130;SDS011;18639;50.716;7.086;2022-07-09T03:19:59;2.90;;;1.20;;
32130;SDS011;18639;50.716;7.086;2022-07-09T03:22:25;1.85;;;1.23;;
32130;SDS011;18639;50.716;7.086;2022-07-09T03:24:50;2.58;;;1.20;;
32130;SDS011;18639;50.716;7.086;2022-07-09T03:27:16;1.95;;;0.90;;
32130;SDS011;18639;50.716;7.086;2022-07-09T03:29:41;1.33;;;0.90;;
32130;SDS011;18639;50.716;7.086;2022-07-09T03:32:06;2.85;;;1.05;;
32130;SDS011;18639;50.716;7.086;2022-07-09T03:34:32;3.13;;;1.13;;
32130;SDS011;18639;50.716;7.086;2022-07-09T03:36:57;1.58;;;0.82;;
32130;SDS011;18639;50.716;7.086;2022-07-09T03:39:24;5.25;;;0.95;;
32130;SDS011;18639;50.716;7.086;2022-07-09T03:41:49;1.42;;;1.00;;
32130;SDS011;18639;50.716;7.086;2022-07-09T03:44:14;3.70;;;1.38;;
32130;SDS011;18639;50.716;7.086;2022-07-09T03:46:39;1.58;;;1.00;;
32130;SDS011;18639;50.716;7.086;2022-07-09T03:49:05;2.15;;;1.10;;
32130;SDS011;18639;50.716;7.086;2022-07-09T03:51:30;2.40;;;0.95;;
32130;SDS011;18639;50.716;7.086;2022-07-09T03:53:55;1.90;;;1.33;;
32130;SDS011;18639;50.716;7.086;2022-07-09T03:56:21;1.40;;;0.88;;
32130;SDS011;18639;50.716;7.086;2022-07-09T03:58:46;5.10;;;0.90;;
32130;SDS011;18639;50.716;7.086;2022-07-09T04:01:12;2.55;;;1.17;;
32130;SDS011;18639;50.716;7.086;2022-07-09T04:03:37;1.58;;;0.90;;
32130;SDS011;18639;50.716;7.086;2022-07-09T04:06:02;2.60;;;1.23;;
32130;SDS011;18639;50.716;7.086;2022-07-09T04:08:28;1.33;;;1.00;;
32130;SDS011;18639;50.716;7.086;2022-07-09T04:10:53;0.95;;;0.90;;
32130;SDS011;18639;50.716;7.086;2022-07-09T04:13:19;1.33;;;0.82;;
32130;SDS011;18639;50.716;7.086;2022-07-09T04:15:44;1.90;;;1.02;;
32130;SDS011;18639;50.716;7.086;2022-07-09T04:18:10;2.30;;;1.10;;
32130;SDS011;18639;50.716;7.086;2022-07-09T04:20:36;1.55;;;0.88;;
32130;SDS011;18639;50.716;7.086;2022-07-09T04:23:01;3.72;;;1.17;;
32130;SDS011;18639;50.716;7.086;2022-07-09T04:25:27;3.85;;;1.10;;
32130;SDS011;18639;50.716;7.086;2022-07-09T04:27:52;1.83;;;1.05;;
32130;SDS011;18639;50.716;7.086;2022-07-09T04:30:17;1.98;;;1.17;;
32130;SDS011;18639;50.716;7.086;2022-07-09T04:32:42;1.40;;;1.15;;
32130;SDS011;18639;50.716;7.086;2022-07-09T04:35:08;1.67;;;1.08;;
32130;SDS011;18639;50.716;7.086;2022-07-09T04:37:33;2.35;;;1.17;;
32130;SDS011;18639;50.716;7.086;2022-07-09T04:39:58;1.92;;;1.00;;
32130;SDS011;18639;50.716;7.086;2022-07-09T04:42:24;1.50;;;0.98;;
32130;SDS011;18639;50.716;7.086;2022-07-09T04:44:49;1.92;;;1.00;;
32130;SDS011;18639;50.716;7.086;2022-07-09T04:47:15;0.80;;;0.80;;
32130;SDS011;18639;50.716;7.086;2022-07-09T04:49:40;1.90;;;0.95;;
32130;SDS011;18639;50.716;7.086;2022-07-09T04:52:05;1.48;;;1.13;;
32130;SDS011;18639;50.716;7.086;2022-07-09T04:54:31;1.70;;;1.00;;
32130;SDS011;18639;50.716;7.086;2022-07-09T04:56:56;2.13;;;1.05;;
32130;SDS011;18639;50.716;7.086;2022-07-09T04:59:21;3.50;;;1.35;;
32130;SDS011;18639;50.716;7.086;2022-07-09T05:01:47;3.47;;;1.10;;
32130;SDS011;18639;50.716;7.086;2022-07-09T05:04:13;1.45;;;1.13;;
32130;SDS011;18639;50.716;7.086;2022-07-09T05:06:38;1.90;;;0.95;;
32130;SDS011;18639;50.716;7.086;2022-07-09T05:09:03;2.78;;;1.35;;
32130;SDS011;18639;50.716;7.086;2022-07-09T05:11:29;2.10;;;1.40;;
32130;SDS011;18639;50.716;7.086;2022-07-09T05:13:55;4.75;;;1.35;;
32130;SDS011;18639;50.716;7.086;2022-07-09T05:16:20;1.75;;;1.13;;
32130;SDS011;18639;50.716;7.086;2022-07-09T05:18:45;2.80;;;1.40;;
32130;SDS011;18639;50.716;7.086;2022-07-09T05:21:10;2.42;;;1.30;;
32130;SDS011;18639;50.716;7.086;2022-07-09T05:23:36;1.20;;;0.90;;
32130;SDS011;18639;50.716;7.086;2022-07-09T05:26:01;2.30;;;1.20;;
32130;SDS011;18639;50.716;7.086;2022-07-09T05:28:27;1.65;;;1.30;;
32130;SDS011;18639;50.716;7.086;2022-07-09T05:30:52;3.33;;;1.05;;
32130;SDS011;18639;50.716;7.086;2022-07-09T05:33:17;2.15;;;1.17;;
32130;SDS011;18639;50.716;7.086;2022-07-09T05:35:44;3.47;;;1.13;;
32130;SDS011;18639;50.716;7.086;2022-07-09T05:38:09;1.45;;;0.93;;
32130;SDS011;18639;50.716;7.086;2022-07-09T05:40:34;1.42;;;1.10;;
32130;SDS011;18639;50.716;7.086;2022-07-09T05:43:00;2.92;;;1.35;;
32130;SDS011;18639;50.716;7.086;2022-07-09T05:45:25;2.78;;;1.40;;
32130;SDS011;18639;50.716;7.086;2022-07-09T05:47:50;2.53;;;1.35;;
32130;SDS011;18639;50.716;7.086;2022-07-09T05:50:15;8.70;;;1.45;;
32130;SDS011;18639;50.716;7.086;2022-07-09T05:52:41;1.85;;;1.27;;
32130;SDS011;18639;50.716;7.086;2022-07-09T05:55:06;2.50;;;1.23;;
32130;SDS011;18639;50.716;7.086;2022-07-09T05:57:32;6.68;;;1.40;;
32130;SDS011;18639;50.716;7.086;2022-07-09T05:59:57;3.50;;;1.60;;
32130;SDS011;18639;50.716;7.086;2022-07-09T06:02:23;2.13;;;1.40;;
32130;SDS011;18639;50.716;7.086;2022-07-09T06:04:48;3.17;;;1.20;;
32130;SDS011;18639;50.716;7.086;2022-07-09T06:07:14;2.35;;;1.40;;
32130;SDS011;18639;50.716;7.086;2022-07-09T06:09:39;5.78;;;2.08;;
32130;SDS011;18639;50.716;7.086;2022-07-09T06:12:04;4.97;;;1.73;;
32130;SDS011;18639;50.716;7.086;2022-07-09T06:14:30;3.72;;;1.60;;
32130;SDS011;18639;50.716;7.086;2022-07-09T06:16:56;6.20;;;2.33;;
32130;SDS011;18639;50.716;7.086;2022-07-09T06:19:21;6.28;;;2.10;;
32130;SDS011;18639;50.716;7.086;2022-07-09T06:21:46;3.63;;;1.85;;
32130;SDS011;18639;50.716;7.086;2022-07-09T06:24:12;4.22;;;2.00;;
32130;SDS011;18639;50.716;7.086;2022-07-09T06:26:37;7.10;;;2.35;;
32130;SDS011;18639;50.716;7.086;2022-07-09T06:29:02;2.83;;;1.63;;
32130;SDS011;18639;50.716;7.086;2022-07-09T06:31:28;6.60;;;1.95;;
32130;SDS011;18639;50.716;7.086;2022-07-09T06:33:54;10.82;;;2.15;;
32130;SDS011;18639;50.716;7.086;2022-07-09T06:36:19;4.95;;;2.50;;
32130;SDS011;18639;50.716;7.086;2022-07-09T06:38:44;5.35;;;1.98;;
32130;SDS011;18639;50.716;7.086;2022-07-09T06:41:28;2.97;;;1.65;;
32130;SDS011;18639;50.716;7.086;2022-07-09T06:43:53;5.60;;;1.85;;
32130;SDS011;18639;50.716;7.086;2022-07-09T06:46:18;9.25;;;2.75;;
32130;SDS011;18639;50.716;7.086;2022-07-09T06:48:44;4.60;;;2.10;;
32130;SDS011;18639;50.716;7.086;2022-07-09T06:51:09;5.07;;;1.63;;
32130;SDS011;18639;50.716;7.086;2022-07-09T06:53:34;5.40;;;2.03;;
32130;SDS011;18639;50.716;7.086;2022-07-09T06:56:00;6.97;;;2.20;;
32130;SDS011;18639;50.716;7.086;2022-07-09T06:58:25;3.40;;;1.92;;
32130;SDS011;18639;50.716;7.086;2022-07-09T07:00:51;7.65;;;2.55;;
32130;SDS011;18639;50.716;7.086;2022-07-09T07:03:16;6.50;;;2.25;;
32130;SDS011;18639;50.716;7.086;2022-07-09T07:05:41;3.05;;;1.73;;
32130;SDS011;18639;50.716;7.086;2022-07-09T07:08:06;7.75;;;1.92;;
32130;SDS011;18639;50.716;7.086;2022-07-09T07:10:32;9.57;;;2.67;;
32130;SDS011;18639;50.716;7.086;2022-07-09T07:12:57;4.07;;;1.77;;
32130;SDS011;18639;50.716;7.086;2022-07-09T07:15:23;2.40;;;1.38;;
32130;SDS011;18639;50.716;7.086;2022-07-09T07:17:48;3.05;;;1.83;;
32130;SDS011;18639;50.716;7.086;2022-07-09T07:20:14;3.90;;;1.48;;
32130;SDS011;18639;50.716;7.086;2022-07-09T07:22:40;3.25;;;1.52;;
32130;SDS011;18639;50.716;7.086;2022-07-09T07:25:05;8.57;;;1.92;;
32130;SDS011;18639;50.716;7.086;2022-07-09T07:27:31;3.10;;;1.80;;
32130;SDS011;18639;50.716;7.086;2022-07-09T07:29:56;8.77;;;2.03;;
32130;SDS011;18639;50.716;7.086;2022-07-09T07:32:22;4.65;;;2.10;;
32130;SDS011;18639;50.716;7.086;2022-07-09T07:34:47;5.13;;;2.30;;
32130;SDS011;18639;50.716;7.086;2022-07-09T07:37:12;4.22;;;2.08;;
32130;SDS011;18639;50.716;7.086;2022-07-09T07:39:37;4.82;;;2.10;;
32130;SDS011;18639;50.716;7.086;2022-07-09T07:42:03;8.35;;;1.95;;
32130;SDS011;18639;50.716;7.086;2022-07-09T07:44:30;4.40;;;1.90;;
32130;SDS011;18639;50.716;7.086;2022-07-09T07:46:55;7.53;;;2.13;;
32130;SDS011;18639;50.716;7.086;2022-07-09T07:49:21;5.93;;;2.47;;
32130;SDS011;18639;50.716;7.086;2022-07-09T07:51:46;5.13;;;2.28;;
32130;SDS011;18639;50.716;7.086;2022-07-09T07:54:11;5.55;;;2.22;;
32130;SDS011;18639;50.716;7.086;2022-07-09T07:56:37;6.78;;;1.85;;
32130;SDS011;18639;50.716;7.086;2022-07-09T07:59:04;3.92;;;1.70;;
32130;SDS011;18639;50.716;7.086;2022-07-09T08:01:29;3.85;;;1.40;;
32130;SDS011;18639;50.716;7.086;2022-07-09T08:03:55;2.60;;;1.50;;
32130;SDS011;18639;50.716;7.086;2022-07-09T08:06:20;2.88;;;1.42;;
32130;SDS011;18639;50.716;7.086;2022-07-09T08:08:47;4.97;;;1.60;;
32130;SDS011;18639;50.716;7.086;2022-07-09T08:11:12;3.42;;;1.73;;
32130;SDS011;18639;50.716;7.086;2022-07-09T08:13:38;2.97;;;1.10;;
32130;SDS011;18639;50.716;7.086;2022-07-09T08:16:06;3.88;;;1.42;;
32130;SDS011;18639;50.716;7.086;2022-07-09T08:18:32;3.20;;;1.35;;
32130;SDS011;18639;50.716;7.086;2022-07-09T08:20:57;4.10;;;1.65;;
32130;SDS011;18639;50.716;7.086;2022-07-09T08:23:23;2.63;;;1.30;;
32130;SDS011;18639;50.716;7.086;2022-07-09T08:25:48;4.20;;;1.30;;
32130;SDS011;18639;50.716;7.086;2022-07-09T08:28:14;6.15;;;1.50;;
32130;SDS011;18639;50.716;7.086;2022-07-09T08:30:40;2.47;;;1.50;;
32130;SDS011;18639;50.716;7.086;2022-07-09T08:33:06;3.80;;;1.52;;
32130;SDS011;18639;50.716;7.086;2022-07-09T08:35:31;2.63;;;1.40;;
32130;SDS011;18639;50.716;7.086;2022-07-09T08:37:57;2.22;;;1.02;;
32130;SDS011;18639;50.716;7.086;2022-07-09T08:40:23;1.70;;;1.23;;
32130;SDS011;18639;50.716;7.086;2022-07-09T08:42:50;1.98;;;1.10;;
32130;SDS011;18639;50.716;7.086;2022-07-09T08:45:16;2.70;;;1.48;;
32130;SDS011;18639;50.716;7.086;2022-07-09T08:47:42;2.60;;;1.25;;
32130;SDS011;18639;50.716;7.086;2022-07-09T08:50:08;2.30;;;1.27;;
32130;SDS011;18639;50.716;7.086;2022-07-09T08:52:39;1.60;;;1.10;;
32130;SDS011;18639;50.716;7.086;2022-07-09T08:55:05;1.58;;;0.82;;
32130;SDS011;18639;50.716;7.086;2022-07-09T08:57:33;1.58;;;1.00;;
32130;SDS011;18639;50.716;7.086;2022-07-09T08:59:59;2.38;;;1.35;;
32130;SDS011;18639;50.716;7.086;2022-07-09T09:02:26;1.92;;;1.10;;
32130;SDS011;18639;50.716;7.086;2022-07-09T09:04:54;1.48;;;1.15;;
32130;SDS011;18639;50.716;7.086;2022-07-09T09:07:19;1.85;;;0.93;;
32130;SDS011;18639;50.716;7.086;2022-07-09T09:09:46;3.38;;;1.58;;
32130;SDS011;18639;50.716;7.086;2022-07-09T09:12:12;1.90;;;1.00;;
32130;SDS011;18639;50.716;7.086;2022-07-09T09:14:38;1.10;;;0.75;;
32130;SDS011;18639;50.716;7.086;2022-07-09T09:17:08;1.88;;;1.13;;
32130;SDS011;18639;50.716;7.086;2022-07-09T09:19:37;1.65;;;0.90;;
32130;SDS011;18639;50.716;7.086;2022-07-09T09:22:02;4.28;;;1.00;;
32130;SDS011;18639;50.716;7.086;2022-07-09T09:24:28;1.75;;;1.05;;
32130;SDS011;18639;50.716;7.086;2022-07-09T09:26:57;2.00;;;0.90;;
32130;SDS011;18639;50.716;7.086;2022-07-09T09:29:23;5.15;;;1.30;;
32130;SDS011;18639;50.716;7.086;2022-07-09T09:31:50;1.55;;;0.98;;
32130;SDS011;18639;50.716;7.086;2022-07-09T09:34:16;2.40;;;1.13;;
32130;SDS011;18639;50.716;7.086;2022-07-09T09:36:47;3.95;;;1.00;;
32130;SDS011;18639;50.716;7.086;2022-07-09T09:41:45;1.83;;;1.13;;
32130;SDS011;18639;50.716;7.086;2022-07-09T09:44:13;1.75;;;1.10;;
32130;SDS011;18639;50.716;7.086;2022-07-09T09:46:41;3.42;;;1.52;;
32130;SDS011;18639;50.716;7.086;2022-07-09T09:49:07;1.67;;;1.10;;
32130;SDS011;18639;50.716;7.086;2022-07-09T09:51:34;1.38;;;0.90;;
32130;SDS011;18639;50.716;7.086;2022-07-09T09:54:02;2.50;;;1.08;;
32130;SDS011;18639;50.716;7.086;2022-07-09T09:56:32;1.45;;;0.75;;
32130;SDS011;18639;50.716;7.086;2022-07-09T09:58:59;6.60;;;1.00;;
32130;SDS011;18639;50.716;7.086;2022-07-09T10:01:27;2.40;;;0.90;;
32130;SDS011;18639;50.716;7.086;2022-07-09T10:03:54;2.60;;;0.90;;
32130;SDS011;18639;50.716;7.086;2022-07-09T10:06:20;1.08;;;0.93;;
32130;SDS011;18639;50.716;7.086;2022-07-09T10:08:46;5.47;;;0.80;;
32130;SDS011;18639;50.716;7.086;2022-07-09T10:11:11;2.03;;;1.00;;
32130;SDS011;18639;50.716;7.086;2022-07-09T10:13:53;2.25;;;0.95;;
32130;SDS011;18639;50.716;7.086;2022-07-09T10:16:31;1.02;;;0.70;;
32130;SDS011;18639;50.716;7.086;2022-07-09T10:18:57;2.13;;;0.80;;
32130;SDS011;18639;50.716;7.086;2022-07-09T10:23:58;1.45;;;1.15;;
32130;SDS011;18639;50.716;7.086;2022-07-09T10:26:33;0.60;;;0.60;;
32130;SDS011;18639;50.716;7.086;2022-07-09T10:29:16;0.93;;;0.73;;
32130;SDS011;18639;50.716;7.086;2022-07-09T10:31:45;3.58;;;0.73;;
32130;SDS011;18639;50.716;7.086;2022-07-09T10:34:20;1.30;;;0.68;;
32130;SDS011;18639;50.716;7.086;2022-07-09T10:36:58;3.70;;;0.50;;
32130;SDS011;18639;50.716;7.086;2022-07-09T10:39:24;0.93;;;0.60;;
32130;SDS011;18639;50.716;7.086;2022-07-09T10:44:54;0.38;;;0.38;;
32130;SDS011;18639;50.716;7.086;2022-07-09T10:47:22;0.60;;;0.60;;
32130;SDS011;18639;50.716;7.086;2022-07-09T10:49:52;2.00;;;0.40;;
32130;SDS011;18639;50.716;7.086;2022-07-09T10:52:19;0.82;;;0.63;;
32130;SDS011;18639;50.716;7.086;2022-07-09T10:54:54;1.15;;;0.70;;
32130;SDS011;18639;50.716;7.086;2022-07-09T10:57:20;1.25;;;0.50;;
32130;SDS011;18639;50.716;7.086;2022-07-09T10:59:46;1.67;;;0.60;;
32130;SDS011;18639;50.716;7.086;2022-07-09T11:02:21;0.88;;;0.60;;
32130;SDS011;18639;50.716;7.086;2022-07-09T11:04:50;0.90;;;0.60;;
32130;SDS011;18639;50.716;7.086;2022-07-09T11:07:23;1.17;;;0.70;;
32130;SDS011;18639;50.716;7.086;2022-07-09T11:09:50;1.40;;;0.70;;
32130;SDS011;18639;50.716;7.086;2022-07-09T11:12:17;1.23;;;0.85;;
32130;SDS011;18639;50.716;7.086;2022-07-09T11:14:47;3.17;;;1.00;;
32130;SDS011;18639;50.716;7.086;2022-07-09T11:17:17;0.75;;;0.45;;
32130;SDS011;18639;50.716;7.086;2022-07-09T11:19:46;0.82;;;0.57;;
32130;SDS011;18639;50.716;7.086;2022-07-09T11:22:13;0.70;;;0.50;;
32130;SDS011;18639;50.716;7.086;2022-07-09T11:24:40;0.85;;;0.70;;
32130;SDS011;18639;50.716;7.086;2022-07-09T11:27:06;1.50;;;0.98;;
32130;SDS011;18639;50.716;7.086;2022-07-09T11:29:32;1.58;;;0.77;;
32130;SDS011;18639;50.716;7.086;2022-07-09T11:32:17;1.20;;;0.80;;
32130;SDS011;18639;50.716;7.086;2022-07-09T11:34:54;1.17;;;0.70;;
32130;SDS011;18639;50.716;7.086;2022-07-09T11:37:24;0.73;;;0.60;;
32130;SDS011;18639;50.716;7.086;2022-07-09T11:39:50;1.58;;;0.70;;
32130;SDS011;18639;50.716;7.086;2022-07-09T11:42:17;3.05;;;0.63;;
32130;SDS011;18639;50.716;7.086;2022-07-09T11:44:52;3.35;;;0.60;;
32130;SDS011;18639;50.716;7.086;2022-07-09T11:47:19;1.30;;;0.70;;
32130;SDS011;18639;50.716;7.086;2022-07-09T11:49:47;0.90;;;0.60;;
32130;SDS011;18639;50.716;7.086;2022-07-09T11:52:25;2.10;;;0.73;;
32130;SDS011;18639;50.716;7.086;2022-07-09T11:57:27;1.58;;;1.00;;
32130;SDS011;18639;50.716;7.086;2022-07-09T11:59:54;1.10;;;0.70;;
32130;SDS011;18639;50.716;7.086;2022-07-09T12:02:54;12.77;;;0.88;;
32130;SDS011;18639;50.716;7.086;2022-07-09T12:05:12;0.88;;;0.52;;
32130;SDS011;18639;50.716;7.086;2022-07-09T12:07:38;1.08;;;0.60;;
32130;SDS011;18639;50.716;7.086;2022-07-09T12:10:07;1.65;;;1.00;;
32130;SDS011;18639;50.716;7.086;2022-07-09T12:12:35;1.17;;;0.70;;
32130;SDS011;18639;50.716;7.086;2022-07-09T12:15:03;0.77;;;0.60;;
32130;SDS011;18639;50.716;7.086;2022-07-09T12:17:31;1.80;;;0.98;;
32130;SDS011;18639;50.716;7.086;2022-07-09T12:19:57;1.50;;;0.60;;
32130;SDS011;18639;50.716;7.086;2022-07-09T12:22:23;1.10;;;0.77;;
32130;SDS011;18639;50.716;7.086;2022-07-09T12:24:50;2.17;;;1.00;;
32130;SDS011;18639;50.716;7.086;2022-07-09T12:27:18;1.45;;;0.75;;
32130;SDS011;18639;50.716;7.086;2022-07-09T12:29:47;0.98;;;0.80;;
32130;SDS011;18639;50.716;7.086;2022-07-09T12:32:12;2.05;;;0.90;;
32130;SDS011;18639;50.716;7.086;2022-07-09T12:34:38;1.35;;;0.90;;
32130;SDS011;18639;50.716;7.086;2022-07-09T12:37:04;1.75;;;0.90;;
32130;SDS011;18639;50.716;7.086;2022-07-09T12:39:29;2.53;;;0.85;;
32130;SDS011;18639;50.716;7.086;2022-07-09T12:41:54;6.50;;;0.77;;
32130;SDS011;18639;50.716;7.086;2022-07-09T12:44:20;3.15;;;0.98;;
32130;SDS011;18639;50.716;7.086;2022-07-09T12:46:46;1.25;;;0.93;;
32130;SDS011;18639;50.716;7.086;2022-07-09T12:49:11;4.10;;;0.80;;
32130;SDS011;18639;50.716;7.086;2022-07-09T12:51:36;1.17;;;0.70;;
32130;SDS011;18639;50.716;7.086;2022-07-09T12:54:02;1.77;;;1.00;;
32130;SDS011;18639;50.716;7.086;2022-07-09T12:56:27;1.02;;;0.68;;
32130;SDS011;18639;50.716;7.086;2022-07-09T12:58:52;2.35;;;1.00;;
32130;SDS011;18639;50.716;7.086;2022-07-09T13:01:19;2.85;;;0.90;;
32130;SDS011;18639;50.716;7.086;2022-07-09T13:03:46;0.73;;;0.60;;
32130;SDS011;18639;50.716;7.086;2022-07-09T13:06:11;1.70;;;0.95;;
32130;SDS011;18639;50.716;7.086;2022-07-09T13:09:06;1.40;;;0.80;;
32130;SDS011;18639;50.716;7.086;2022-07-09T13:11:33;2.00;;;0.75;;
32130;SDS011;18639;50.716;7.086;2022-07-09T13:13:59;2.10;;;0.95;;
32130;SDS011;18639;50.716;7.086;2022-07-09T13:16:24;1.90;;;1.42;;
32130;SDS011;18639;50.716;7.086;2022-07-09T13:18:50;1.58;;;1.10;;
32130;SDS011;18639;50.716;7.086;2022-07-09T13:21:16;1.42;;;1.00;;
32130;SDS011;18639;50.716;7.086;2022-07-09T13:23:42;1.80;;;1.10;;
32130;SDS011;18639;50.716;7.086;2022-07-09T13:26:07;2.17;;;0.95;;
32130;SDS011;18639;50.716;7.086;2022-07-09T13:28:33;4.40;;;1.20;;
32130;SDS011;18639;50.716;7.086;2022-07-09T13:30:58;1.77;;;1.05;;
32130;SDS011;18639;50.716;7.086;2022-07-09T13:33:23;1.85;;;1.20;;
32130;SDS011;18639;50.716;7.086;2022-07-09T13:35:49;2.33;;;1.23;;
32130;SDS011;18639;50.716;7.086;2022-07-09T13:38:14;1.73;;;0.90;;
32130;SDS011;18639;50.716;7.086;2022-07-09T13:40:40;1.77;;;0.90;;
32130;SDS011;18639;50.716;7.086;2022-07-09T13:43:05;1.77;;;0.95;;
32130;SDS011;18639;50.716;7.086;2022-07-09T13:45:30;2.05;;;1.00;;
32130;SDS011;18639;50.716;7.086;2022-07-09T13:47:56;1.27;;;0.90;;
32130;SDS011;18639;50.716;7.086;2022-07-09T13:50:22;2.13;;;1.13;;
32130;SDS011;18639;50.716;7.086;2022-07-09T13:52:51;3.25;;;1.30;;
32130;SDS011;18639;50.716;7.086;2022-07-09T13:55:16;2.92;;;1.50;;
32130;SDS011;18639;50.716;7.086;2022-07-09T13:57:42;2.80;;;1.55;;
32130;SDS011;18639;50.716;7.086;2022-07-09T14:00:08;2.90;;;1.33;;
32130;SDS011;18639;50.716;7.086;2022-07-09T14:02:34;3.20;;;1.45;;
32130;SDS011;18639;50.716;7.086;2022-07-09T14:05:01;3.22;;;1.30;;
32130;SDS011;18639;50.716;7.086;2022-07-09T14:07:27;3.33;;;1.45;;
32130;SDS011;18639;50.716;7.086;2022-07-09T14:09:52;3.85;;;1.58;;
32130;SDS011;18639;50.716;7.086;2022-07-09T14:12:19;3.83;;;1.80;;
32130;SDS011;18639;50.716;7.086;2022-07-09T14:14:47;3.03;;;2.00;;
32130;SDS011;18639;50.716;7.086;2022-07-09T14:17:12;5.30;;;2.10;;
32130;SDS011;18639;50.716;7.086;2022-07-09T14:19:37;3.88;;;1.80;;
32130;SDS011;18639;50.716;7.086;2022-07-09T14:22:03;3.75;;;2.10;;
32130;SDS011;18639;50.716;7.086;2022-07-09T14:24:28;5.28;;;2.15;;
32130;SDS011;18639;50.716;7.086;2022-07-09T14:26:53;4.72;;;2.28;;
32130;SDS011;18639;50.716;7.086;2022-07-09T14:29:19;5.95;;;2.40;;
32130;SDS011;18639;50.716;7.086;2022-07-09T14:31:44;5.05;;;2.38;;
32130;SDS011;18639;50.716;7.086;2022-07-09T14:34:12;5.38;;;2.33;;
32130;SDS011;18639;50.716;7.086;2022-07-09T14:36:37;6.20;;;2.30;;
32130;SDS011;18639;50.716;7.086;2022-07-09T14:39:03;3.95;;;2.28;;
32130;SDS011;18639;50.716;7.086;2022-07-09T14:41:31;4.80;;;2.45;;
32130;SDS011;18639;50.716;7.086;2022-07-09T14:44:02;5.68;;;2.35;;
32130;SDS011;18639;50.716;7.086;2022-07-09T14:46:28;6.07;;;2.53;;
32130;SDS011;18639;50.716;7.086;2022-07-09T14:51:22;4.28;;;2.42;;
32130;SDS011;18639;50.716;7.086;2022-07-09T14:53:48;7.43;;;2.80;;
32130;SDS011;18639;50.716;7.086;2022-07-09T14:56:13;6.55;;;2.70;;